createdAt,value
2022-09-20T00:01:10.975Z,11.80
2022-09-20T00:03:39.667Z,11.80
2022-09-20T00:06:09.098Z,11.80
2022-09-20T00:08:35.892Z,11.80
2022-09-20T00:11:04.687Z,11.80
2022-09-20T00:13:31.485Z,11.80
2022-09-20T00:15:58.818Z,11.80
2022-09-20T00:18:26.371Z,11.80
2022-09-20T00:20:53.314Z,11.80
2022-09-20T00:23:20.308Z,11.80
2022-09-20T00:25:55.956Z,11.90
2022-09-20T00:28:23.199Z,11.90
2022-09-20T00:30:50.903Z,11.90
2022-09-20T00:33:17.633Z,11.90
2022-09-20T00:35:45.474Z,11.90
2022-09-20T00:38:16.406Z,11.90
2022-09-20T00:40:44.563Z,11.80
2022-09-20T00:43:16.038Z,11.80
2022-09-20T00:45:46.530Z,11.80
2022-09-20T00:48:27.664Z,11.80
2022-09-20T00:51:08.952Z,11.80
2022-09-20T00:53:44.436Z,11.80
2022-09-20T00:56:25.578Z,11.70
2022-09-20T00:58:59.315Z,11.70
2022-09-20T01:01:26.482Z,11.60
2022-09-20T01:03:54.473Z,11.60
2022-09-20T01:06:21.331Z,11.60
2022-09-20T01:08:51.279Z,11.60
2022-09-20T01:11:18.383Z,11.50
2022-09-20T01:13:45.194Z,11.50
2022-09-20T01:16:14.531Z,11.50
2022-09-20T01:18:42.911Z,11.50
2022-09-20T01:21:10.562Z,11.50
2022-09-20T01:23:56.027Z,11.50
2022-09-20T01:26:58.246Z,11.50
2022-09-20T01:29:40.092Z,11.60
2022-09-20T01:32:16.446Z,11.50
2022-09-20T01:34:50.442Z,11.60
2022-09-20T01:37:28.063Z,11.60
2022-09-20T01:40:12.204Z,11.60
2022-09-20T01:42:56.426Z,11.60
2022-09-20T01:45:28.574Z,11.60
2022-09-20T01:48:10.202Z,11.70
2022-09-20T01:50:46.395Z,11.70
2022-09-20T01:53:48.489Z,11.70
2022-09-20T01:56:32.439Z,11.70
2022-09-20T01:59:30.634Z,11.70
2022-09-20T02:02:19.439Z,11.70
2022-09-20T02:05:09.306Z,11.60
2022-09-20T02:07:57.624Z,11.70
2022-09-20T02:10:47.090Z,11.70
2022-09-20T02:13:29.827Z,11.70
2022-09-20T02:16:28.866Z,11.70
2022-09-20T02:19:10.267Z,11.70
2022-09-20T02:21:51.327Z,11.70
2022-09-20T02:24:55.719Z,11.60
2022-09-20T02:27:31.304Z,11.60
2022-09-20T02:30:13.820Z,11.60
2022-09-20T02:33:06.867Z,11.50
2022-09-20T02:35:54.763Z,11.60
2022-09-20T02:38:46.339Z,11.60
2022-09-20T02:41:40.722Z,11.60
2022-09-20T02:44:29.715Z,11.50
2022-09-20T02:47:06.191Z,11.50
2022-09-20T02:49:51.912Z,11.50
2022-09-20T02:52:54.717Z,11.50
2022-09-20T02:55:45.109Z,11.50
2022-09-20T02:59:00.061Z,11.50
2022-09-20T03:01:38.355Z,11.50
2022-09-20T03:04:10.996Z,11.50
2022-09-20T03:06:45.536Z,11.50
2022-09-20T03:09:31.827Z,11.40
2022-09-20T03:12:29.208Z,11.40
2022-09-20T03:15:26.571Z,11.40
2022-09-20T03:18:11.492Z,11.30
2022-09-20T03:21:25.209Z,11.30
2022-09-20T03:24:19.084Z,11.30
2022-09-20T03:26:57.223Z,11.30
2022-09-20T03:29:43.506Z,11.20
2022-09-20T03:32:36.057Z,11.20
2022-09-20T03:35:36.524Z,11.20
2022-09-20T03:38:18.755Z,11.20
2022-09-20T03:41:17.276Z,11.20
2022-09-20T03:43:43.844Z,11.10
2022-09-20T03:46:18.524Z,11.10
2022-09-20T03:49:16.390Z,11.20
2022-09-20T03:52:29.768Z,11.10
2022-09-20T03:55:23.975Z,11.10
2022-09-20T03:58:24.529Z,11.10
2022-09-20T04:01:05.492Z,11.10
2022-09-20T04:04:23.102Z,11.00
2022-09-20T04:07:01.510Z,11.00
2022-09-20T04:09:40.303Z,11.00
2022-09-20T04:12:20.916Z,10.90
2022-09-20T04:15:16.009Z,11.00
2022-09-20T04:18:27.163Z,11.00
2022-09-20T04:21:26.950Z,11.00
2022-09-20T04:24:21.301Z,11.00
2022-09-20T04:26:55.333Z,10.90
2022-09-20T04:29:44.620Z,10.90
2022-09-20T04:32:19.390Z,10.90
2022-09-20T04:35:24.619Z,10.80
2022-09-20T04:37:52.761Z,10.80
2022-09-20T04:40:51.663Z,10.80
2022-09-20T04:43:27.070Z,10.80
2022-09-20T04:46:32.890Z,10.90
2022-09-20T04:49:13.255Z,10.80
2022-09-20T04:51:59.967Z,10.80
2022-09-20T04:54:54.390Z,10.80
2022-09-20T04:57:54.855Z,10.80
2022-09-20T05:00:32.590Z,10.80
2022-09-20T05:03:32.087Z,10.70
2022-09-20T05:06:11.230Z,10.70
2022-09-20T05:09:09.331Z,10.70
2022-09-20T05:11:47.153Z,10.70
2022-09-20T05:14:37.218Z,10.70
2022-09-20T05:17:31.372Z,10.70
2022-09-20T05:20:14.295Z,10.70
2022-09-20T05:23:10.872Z,10.70
2022-09-20T05:26:17.865Z,10.70
2022-09-20T05:29:02.622Z,10.70
2022-09-20T05:31:51.500Z,10.70
2022-09-20T05:34:23.915Z,10.70
2022-09-20T05:37:23.444Z,10.60
2022-09-20T05:39:59.263Z,10.60
2022-09-20T05:42:42.812Z,10.50
2022-09-20T05:45:31.219Z,10.50
2022-09-20T05:48:13.696Z,10.60
2022-09-20T05:50:49.236Z,10.70
2022-09-20T05:53:34.793Z,10.70
2022-09-20T05:56:11.660Z,10.70
2022-09-20T05:59:19.371Z,10.80
2022-09-20T06:02:17.720Z,10.80
2022-09-20T06:04:52.817Z,10.80
2022-09-20T06:07:29.992Z,10.80
2022-09-20T06:10:13.673Z,10.80
2022-09-20T06:12:57.332Z,10.80
2022-09-20T06:15:54.698Z,10.80
2022-09-20T06:18:45.547Z,10.80
2022-09-20T06:21:14.909Z,10.70
2022-09-20T06:23:41.640Z,10.70
2022-09-20T06:26:17.243Z,10.80
2022-09-20T06:28:55.213Z,10.80
2022-09-20T06:31:24.401Z,10.80
2022-09-20T06:34:03.463Z,10.80
2022-09-20T06:37:10.770Z,10.80
2022-09-20T06:40:01.816Z,10.90
2022-09-20T06:42:29.516Z,11.00
2022-09-20T06:44:56.412Z,11.00
2022-09-20T06:47:24.183Z,11.10
2022-09-20T06:49:50.780Z,11.10
2022-09-20T06:52:20.387Z,11.10
2022-09-20T06:54:49.919Z,11.20
2022-09-20T06:57:23.695Z,11.20
2022-09-20T06:59:50.326Z,11.30
2022-09-20T07:02:16.999Z,11.30
2022-09-20T07:04:44.549Z,11.30
2022-09-20T07:07:16.606Z,11.30
2022-09-20T07:09:43.220Z,11.40
2022-09-20T07:12:11.974Z,11.50
2022-09-20T07:14:39.091Z,11.60
2022-09-20T07:17:06.533Z,11.60
2022-09-20T07:19:33.862Z,11.70
2022-09-20T07:22:00.479Z,11.80
2022-09-20T07:24:27.159Z,11.90
2022-09-20T07:27:02.695Z,11.90
2022-09-20T07:29:32.771Z,11.90
2022-09-20T07:31:59.965Z,11.90
2022-09-20T07:34:27.299Z,12.00
2022-09-20T07:36:53.998Z,12.10
2022-09-20T07:39:20.773Z,12.20
2022-09-20T07:41:51.157Z,12.30
2022-09-20T07:44:21.948Z,12.30
2022-09-20T07:47:00.264Z,12.40
2022-09-20T07:49:30.245Z,12.40
2022-09-20T07:51:57.740Z,12.40
2022-09-20T07:54:24.680Z,12.50
2022-09-20T07:56:51.299Z,12.50
2022-09-20T07:59:18.010Z,12.50
2022-09-20T08:01:44.655Z,12.50
2022-09-20T08:04:11.745Z,12.50
2022-09-20T08:06:40.203Z,12.40
2022-09-20T08:09:10.942Z,12.40
2022-09-20T08:11:39.367Z,12.40
2022-09-20T08:14:08.844Z,12.40
2022-09-20T08:16:44.568Z,12.30
2022-09-20T08:19:22.727Z,12.30
2022-09-20T08:21:52.563Z,12.40
2022-09-20T08:24:19.201Z,12.40
2022-09-20T08:26:46.135Z,12.40
2022-09-20T08:29:14.902Z,12.50
2022-09-20T08:31:42.376Z,12.50
2022-09-20T08:34:12.094Z,12.50
2022-09-20T08:36:41.183Z,12.60
2022-09-20T08:42:09.089Z,12.80
2022-09-20T08:44:57.832Z,12.90
2022-09-20T08:47:35.646Z,13.10
2022-09-20T08:50:10.122Z,13.20
2022-09-20T08:52:39.988Z,13.30
2022-09-20T08:55:22.943Z,13.40
2022-09-20T08:57:53.304Z,13.50
2022-09-20T09:00:33.699Z,13.50
2022-09-20T09:03:07.060Z,13.60
2022-09-20T09:05:35.830Z,13.70
2022-09-20T09:08:08.897Z,13.80
2022-09-20T09:10:43.084Z,13.80
2022-09-20T09:13:18.914Z,13.90
2022-09-20T09:15:49.197Z,14.00
2022-09-20T09:18:15.885Z,14.10
2022-09-20T09:20:46.104Z,14.30
2022-09-20T09:23:26.461Z,14.40
2022-09-20T09:25:54.980Z,14.50
2022-09-20T09:28:29.221Z,14.50
2022-09-20T09:31:22.296Z,14.80
2022-09-20T09:33:49.311Z,15.00
2022-09-20T09:36:20.395Z,15.10
2022-09-20T09:38:47.567Z,15.20
2022-09-20T09:41:35.225Z,15.30
2022-09-20T09:44:06.648Z,15.30
2022-09-20T09:46:36.167Z,15.30
2022-09-20T09:49:18.276Z,15.30
2022-09-20T09:52:03.718Z,15.30
2022-09-20T09:54:35.969Z,15.30
2022-09-20T09:57:15.896Z,15.20
2022-09-20T09:59:54.856Z,15.10
2022-09-20T10:02:40.997Z,15.20
2022-09-20T10:05:24.626Z,15.20
2022-09-20T10:08:10.968Z,15.20
2022-09-20T10:11:10.174Z,15.20
2022-09-20T10:14:20.931Z,15.10
2022-09-20T10:17:15.047Z,15.00
2022-09-20T10:20:05.477Z,14.90
2022-09-20T10:23:26.537Z,14.60
2022-09-20T10:25:51.757Z,14.30
2022-09-20T10:28:28.815Z,14.20
2022-09-20T10:31:32.341Z,14.20
2022-09-20T10:34:20.128Z,14.10
2022-09-20T10:36:52.757Z,14.20
2022-09-20T10:39:36.315Z,14.20
2022-09-20T10:42:57.454Z,14.30
2022-09-20T10:49:16.599Z,14.70
2022-09-20T10:52:08.268Z,14.90
2022-09-20T10:55:03.784Z,15.10
2022-09-20T10:58:07.621Z,15.40
2022-09-20T11:00:56.133Z,15.70
2022-09-20T11:03:35.242Z,15.80
2022-09-20T11:06:19.737Z,15.80
2022-09-20T11:08:51.548Z,15.80
2022-09-20T11:11:34.652Z,15.80
2022-09-20T11:14:12.569Z,15.80
2022-09-20T11:17:00.224Z,15.80
2022-09-20T11:19:35.016Z,15.80
2022-09-20T11:22:21.407Z,15.80
2022-09-20T11:25:02.869Z,15.80
2022-09-20T11:27:39.765Z,15.80
2022-09-20T11:30:20.944Z,15.90
2022-09-20T11:33:02.415Z,15.90
2022-09-20T11:35:31.431Z,16.00
2022-09-20T11:38:02.952Z,16.10
2022-09-20T11:40:37.580Z,16.20
2022-09-20T11:43:07.209Z,16.30
2022-09-20T11:45:35.119Z,16.30
2022-09-20T11:48:12.771Z,16.40
2022-09-20T11:50:51.151Z,16.50
2022-09-20T11:53:37.198Z,16.50
2022-09-20T11:56:19.940Z,16.50
2022-09-20T11:58:59.010Z,16.40
2022-09-20T12:01:41.278Z,16.30
2022-09-20T12:04:39.023Z,16.50
2022-09-20T12:07:25.792Z,16.50
2022-09-20T12:10:02.620Z,16.50
2022-09-20T12:12:41.718Z,16.50
2022-09-20T12:15:23.213Z,16.50
2022-09-20T12:17:49.917Z,16.80
2022-09-20T12:20:44.865Z,16.90
2022-09-20T12:23:42.770Z,17.00
2022-09-20T12:26:36.808Z,17.00
2022-09-20T12:29:23.363Z,17.00
2022-09-20T12:31:56.417Z,17.00
2022-09-20T12:34:26.067Z,16.90
2022-09-20T12:36:55.454Z,16.90
2022-09-20T12:39:29.458Z,16.80
2022-09-20T12:42:30.927Z,16.80
2022-09-20T12:45:15.520Z,16.70
2022-09-20T12:47:53.212Z,16.60
2022-09-20T12:50:41.052Z,16.60
2022-09-20T12:53:16.781Z,16.60
2022-09-20T12:56:16.349Z,16.60
2022-09-20T12:58:55.848Z,16.60
2022-09-20T13:01:22.530Z,16.70
2022-09-20T13:03:50.487Z,16.80
2022-09-20T13:06:20.003Z,16.80
2022-09-20T13:09:01.808Z,16.80
2022-09-20T13:11:45.729Z,16.90
2022-09-20T13:14:18.875Z,16.90
2022-09-20T13:17:00.610Z,16.90
2022-09-20T13:19:38.942Z,16.90
2022-09-20T13:22:19.036Z,16.90
2022-09-20T13:24:48.731Z,16.90
2022-09-20T13:27:45.118Z,16.80
2022-09-20T13:30:22.186Z,16.80
2022-09-20T13:32:51.356Z,16.60
2022-09-20T13:35:29.388Z,16.60
2022-09-20T13:38:01.974Z,16.50
2022-09-20T13:40:33.647Z,16.40
2022-09-20T13:43:22.718Z,16.30
2022-09-20T13:45:56.220Z,16.20
2022-09-20T13:48:27.494Z,16.20
2022-09-20T13:50:55.815Z,16.20
2022-09-20T13:53:40.649Z,16.20
2022-09-20T13:56:20.175Z,16.10
2022-09-20T13:58:48.159Z,16.10
2022-09-20T14:01:35.428Z,16.10
2022-09-20T14:04:29.436Z,16.10
2022-09-20T14:06:58.368Z,16.10
2022-09-20T14:09:32.461Z,16.10
2022-09-20T14:12:04.758Z,16.10
2022-09-20T14:14:32.997Z,16.20
2022-09-20T14:17:01.358Z,16.20
2022-09-20T14:19:42.639Z,16.30
2022-09-20T14:22:18.937Z,16.30
2022-09-20T14:25:18.722Z,16.30
2022-09-20T14:27:45.846Z,16.30
2022-09-20T14:30:36.446Z,16.30
2022-09-20T14:33:06.591Z,16.30
2022-09-20T14:35:33.501Z,16.40
2022-09-20T14:38:08.461Z,16.40
2022-09-20T14:40:48.719Z,16.50
2022-09-20T14:43:29.550Z,16.60
2022-09-20T14:46:06.978Z,16.60
2022-09-20T14:48:42.507Z,16.70
2022-09-20T14:51:31.492Z,16.70
2022-09-20T14:54:07.161Z,16.70
2022-09-20T14:56:37.522Z,16.70
2022-09-20T14:59:19.221Z,16.70
2022-09-20T15:01:57.229Z,16.60
2022-09-20T15:04:26.814Z,16.50
2022-09-20T15:06:53.928Z,16.50
2022-09-20T15:09:21.723Z,16.50
2022-09-20T15:12:00.177Z,16.40
2022-09-20T15:14:26.788Z,16.40
2022-09-20T15:16:53.899Z,16.40
2022-09-20T15:19:20.550Z,16.40
2022-09-20T15:21:47.190Z,16.50
2022-09-20T15:24:14.528Z,16.50
2022-09-20T15:26:41.179Z,16.50
2022-09-20T15:29:10.709Z,16.40
2022-09-20T15:31:37.341Z,16.30
2022-09-20T15:34:06.958Z,16.30
2022-09-20T15:36:33.748Z,16.30
2022-09-20T15:39:00.491Z,16.30
2022-09-20T15:41:31.185Z,16.30
2022-09-20T15:43:59.082Z,16.30
2022-09-20T15:46:29.135Z,16.40
2022-09-20T15:48:56.740Z,16.40
2022-09-20T15:51:23.457Z,16.40
2022-09-20T15:54:06.173Z,16.40
2022-09-20T15:56:35.191Z,16.40
2022-09-20T15:59:05.000Z,16.40
2022-09-20T16:01:35.418Z,16.40
2022-09-20T16:04:10.216Z,16.30
2022-09-20T16:06:38.430Z,16.20
2022-09-20T16:09:06.195Z,16.10
2022-09-20T16:11:32.963Z,16.00
2022-09-20T16:14:00.440Z,16.00
2022-09-20T16:16:29.418Z,15.90
2022-09-20T16:19:14.559Z,15.90
2022-09-20T16:21:42.639Z,15.80
2022-09-20T16:24:10.129Z,15.80
2022-09-20T16:26:37.587Z,15.70
2022-09-20T16:29:05.021Z,15.60
2022-09-20T16:31:41.308Z,15.50
2022-09-20T16:34:19.160Z,15.40
2022-09-20T16:36:54.119Z,15.40
2022-09-20T16:39:26.117Z,15.30
2022-09-20T16:41:53.483Z,15.30
2022-09-20T16:44:20.260Z,15.20
2022-09-20T16:46:47.400Z,15.20
2022-09-20T16:49:15.307Z,15.20
2022-09-20T16:51:43.228Z,15.20
2022-09-20T16:54:12.468Z,15.10
2022-09-20T16:56:50.317Z,15.10
2022-09-20T16:59:20.675Z,15.10
2022-09-20T17:01:48.435Z,15.00
2022-09-20T17:04:18.238Z,14.90
2022-09-20T17:06:45.802Z,14.90
2022-09-20T17:09:15.627Z,14.80
2022-09-20T17:11:45.818Z,14.70
2022-09-20T17:14:13.459Z,14.70
2022-09-20T17:16:41.969Z,14.60
2022-09-20T17:19:12.847Z,14.50
2022-09-20T17:21:43.625Z,14.40
2022-09-20T17:24:10.591Z,14.20
2022-09-20T17:26:44.320Z,14.20
2022-09-20T17:29:17.314Z,14.10
2022-09-20T17:31:50.028Z,14.10
2022-09-20T17:34:21.703Z,14.00
2022-09-20T17:36:50.394Z,13.90
2022-09-20T17:39:17.299Z,13.80
2022-09-20T17:41:46.249Z,13.70
2022-09-20T17:44:13.949Z,13.70
2022-09-20T17:46:43.027Z,13.60
2022-09-20T17:49:11.978Z,13.50
2022-09-20T17:51:41.113Z,13.50
2022-09-20T17:54:08.909Z,13.40
2022-09-20T17:56:35.724Z,13.40
2022-09-20T17:59:04.167Z,13.30
2022-09-20T18:01:32.838Z,13.20
2022-09-20T18:04:01.585Z,13.20
2022-09-20T18:06:44.170Z,13.10
2022-09-20T18:09:12.173Z,13.10
2022-09-20T18:11:41.449Z,13.10
2022-09-20T18:14:13.317Z,13.10
2022-09-20T18:16:40.380Z,13.00
2022-09-20T18:19:08.155Z,13.00
2022-09-20T18:21:36.365Z,13.00
2022-09-20T18:24:07.294Z,13.00
2022-09-20T18:26:34.817Z,12.90
2022-09-20T18:29:06.786Z,12.90
2022-09-20T18:31:52.141Z,12.80
2022-09-20T18:34:23.620Z,12.70
2022-09-20T18:36:52.845Z,12.60
2022-09-20T18:39:24.068Z,12.60
2022-09-20T18:41:52.941Z,12.50
2022-09-20T18:44:20.773Z,12.50
2022-09-20T18:46:49.351Z,12.50
2022-09-20T18:49:16.853Z,12.50
2022-09-20T18:51:44.510Z,12.50
2022-09-20T18:54:11.974Z,12.40
2022-09-20T18:56:41.805Z,12.40
2022-09-20T18:59:14.269Z,12.40
2022-09-20T19:01:49.973Z,12.30
2022-09-20T19:04:47.208Z,12.20
2022-09-20T19:07:32.853Z,12.20
2022-09-20T19:10:36.040Z,12.10
2022-09-20T19:13:17.972Z,12.10
2022-09-20T19:16:15.391Z,12.10
2022-09-20T19:19:07.403Z,12.10
2022-09-20T19:21:52.179Z,12.10
2022-09-20T19:24:24.982Z,12.00
2022-09-20T19:26:51.876Z,12.00
2022-09-20T19:29:24.782Z,12.00
2022-09-20T19:31:55.382Z,12.10
2022-09-20T19:34:25.642Z,12.10
2022-09-20T19:37:19.016Z,12.10
2022-09-20T19:39:57.655Z,12.20
2022-09-20T19:42:54.708Z,12.30
2022-09-20T19:45:33.155Z,12.30
2022-09-20T19:48:07.178Z,12.30
2022-09-20T19:50:50.571Z,12.20
2022-09-20T19:53:20.327Z,12.30
2022-09-20T19:55:52.154Z,12.30
2022-09-20T19:58:19.299Z,12.40
2022-09-20T20:00:47.153Z,12.40
2022-09-20T20:03:15.624Z,12.40
2022-09-20T20:05:52.095Z,12.40
2022-09-20T20:08:23.843Z,12.30
2022-09-20T20:11:18.130Z,12.30
2022-09-20T20:14:03.144Z,12.30
2022-09-20T20:17:05.478Z,12.30
2022-09-20T20:19:38.742Z,12.30
2022-09-20T20:22:20.300Z,12.30
2022-09-20T20:24:51.705Z,12.30
2022-09-20T20:27:19.623Z,12.40
2022-09-20T20:29:47.047Z,12.40
2022-09-20T20:32:15.085Z,12.40
2022-09-20T20:34:42.081Z,12.40
2022-09-20T20:37:09.015Z,12.40
2022-09-20T20:39:35.782Z,12.40
2022-09-20T20:42:03.857Z,12.40
2022-09-20T20:44:31.402Z,12.40
2022-09-20T20:46:58.120Z,12.40
2022-09-20T20:49:24.820Z,12.40
2022-09-20T20:51:51.578Z,12.40
2022-09-20T20:54:18.427Z,12.40
2022-09-20T20:56:45.130Z,12.30
2022-09-20T20:59:11.800Z,12.30
2022-09-20T21:01:44.956Z,12.30
2022-09-20T21:04:12.934Z,12.40
2022-09-20T21:06:41.371Z,12.40
2022-09-20T21:09:09.703Z,12.40
2022-09-20T21:11:38.907Z,12.50
2022-09-20T21:14:07.186Z,12.40
2022-09-20T21:16:36.556Z,12.30
2022-09-20T21:19:04.582Z,12.20
2022-09-20T21:21:36.647Z,12.20
2022-09-20T21:24:05.900Z,12.10
2022-09-20T21:26:34.435Z,12.10
2022-09-20T21:29:03.678Z,12.10
2022-09-20T21:31:33.240Z,12.10
2022-09-20T21:34:00.270Z,12.10
2022-09-20T21:36:28.874Z,12.10
2022-09-20T21:38:55.802Z,12.10
2022-09-20T21:41:25.054Z,12.10
2022-09-20T21:43:57.043Z,12.10
2022-09-20T21:46:29.102Z,12.10
2022-09-20T21:49:01.380Z,12.10
2022-09-20T21:51:31.420Z,12.10
2022-09-20T21:54:01.281Z,12.10
2022-09-20T21:56:31.121Z,12.10
2022-09-20T21:58:58.513Z,12.10
2022-09-20T22:01:27.175Z,12.10
2022-09-20T22:03:57.362Z,12.10
2022-09-20T22:06:30.922Z,12.10
2022-09-20T22:09:01.112Z,12.00
2022-09-20T22:11:31.060Z,12.00
2022-09-20T22:13:59.082Z,12.10
2022-09-20T22:16:28.783Z,12.00
2022-09-20T22:18:56.209Z,12.00
2022-09-20T22:21:31.827Z,12.00
2022-09-20T22:24:01.463Z,11.90
2022-09-20T22:26:35.014Z,11.90
2022-09-20T22:29:03.082Z,11.90
2022-09-20T22:31:32.185Z,11.90
2022-09-20T22:34:01.316Z,11.90
2022-09-20T22:36:30.742Z,11.90
2022-09-20T22:38:57.532Z,11.80
2022-09-20T22:41:24.914Z,11.80
2022-09-20T22:43:51.976Z,11.80
2022-09-20T22:46:21.737Z,11.80
2022-09-20T22:48:49.405Z,11.80
2022-09-20T22:51:19.187Z,11.70
2022-09-20T22:53:47.485Z,11.70
2022-09-20T22:56:19.234Z,11.70
2022-09-20T22:58:57.313Z,11.70
2022-09-20T23:01:29.346Z,11.70
2022-09-20T23:04:23.421Z,11.70
2022-09-20T23:06:54.985Z,11.60
2022-09-20T23:09:25.225Z,11.60
2022-09-20T23:11:52.258Z,11.60
2022-09-20T23:14:21.883Z,11.60
2022-09-20T23:16:49.423Z,11.70
2022-09-20T23:19:17.312Z,11.70
2022-09-20T23:21:44.922Z,11.70
2022-09-20T23:24:16.565Z,11.70
2022-09-20T23:26:44.321Z,11.60
2022-09-20T23:29:13.657Z,11.60
2022-09-20T23:31:45.873Z,11.50
2022-09-20T23:34:14.123Z,11.50
2022-09-20T23:36:41.635Z,11.50
2022-09-20T23:39:09.478Z,11.40
2022-09-20T23:41:37.069Z,11.40
2022-09-20T23:44:06.397Z,11.40
2022-09-20T23:46:33.982Z,11.30
2022-09-20T23:49:00.772Z,11.20
2022-09-20T23:51:28.957Z,11.20
2022-09-20T23:53:56.139Z,11.10
2022-09-20T23:56:23.900Z,11.10
2022-09-20T23:58:51.162Z,11.10
